Time;durP1;ratioP1;P1;durP2;ratioP2;P2;SDS_P1;SDS_P2;PMS_P1;PMS_P2;Temp;Humidity;BMP_temperature;BMP_pressure;BME280_temperature;BME280_humidity;BME280_pressure;Samples;Min_cycle;Max_cycle;Signal;HPM_P1;HPM_P2
2021/04/30 00:00:09;;;;;;;4.30;4.00;;;11.90;99.90;;;;;;5053484;28;20567;-75
2021/04/30 00:02:35;;;;;;;5.20;4.73;;;11.90;99.90;;;;;;5052327;28;20177;-75
2021/04/30 00:05:01;;;;;;;6.47;4.53;;;11.90;99.90;;;;;;5053266;28;20178;-75
2021/04/30 00:07:27;;;;;;;5.20;4.80;;;11.80;99.90;;;;;;5053223;28;20269;-75
2021/04/30 00:09:52;;;;;;;5.80;5.30;;;11.80;99.90;;;;;;5053125;28;20289;-75
2021/04/30 00:12:18;;;;;;;9.07;5.23;;;11.70;99.90;;;;;;5053148;28;20189;-75
2021/04/30 00:14:43;;;;;;;7.77;5.30;;;11.70;99.90;;;;;;5052777;28;20561;-74
2021/04/30 00:17:09;;;;;;;5.83;5.33;;;11.80;99.90;;;;;;5052839;28;20182;-75
2021/04/30 00:19:35;;;;;;;5.30;4.90;;;11.80;99.90;;;;;;5052940;28;20178;-75
2021/04/30 00:22:01;;;;;;;6.03;4.77;;;11.90;99.90;;;;;;5052902;28;20646;-75
2021/04/30 00:24:26;;;;;;;6.63;4.30;;;11.90;99.90;;;;;;5052826;28;20193;-75
2021/04/30 00:26:52;;;;;;;5.30;4.80;;;11.90;99.90;;;;;;5042698;28;20194;-75
2021/04/30 00:29:18;;;;;;;5.77;5.10;;;11.90;99.90;;;;;;5052805;28;20181;-75
2021/04/30 00:31:44;;;;;;;5.60;4.97;;;11.90;99.90;;;;;;5052276;28;20220;-75
2021/04/30 00:34:09;;;;;;;5.77;5.17;;;11.90;99.90;;;;;;5052755;28;20547;-75
2021/04/30 00:36:35;;;;;;;6.77;5.63;;;11.90;99.90;;;;;;5052491;28;20177;-75
2021/04/30 00:39:02;;;;;;;8.20;6.00;;;12.00;99.90;;;;;;5051503;28;20181;-75
2021/04/30 00:41:28;;;;;;;5.97;5.37;;;12.00;99.90;;;;;;5051311;28;20201;-75
2021/04/30 00:43:54;;;;;;;6.03;5.40;;;12.00;99.90;;;;;;5052358;28;20189;-75
2021/04/30 00:46:20;;;;;;;6.03;5.40;;;12.00;99.90;;;;;;5052566;28;20205;-75
2021/04/30 00:48:46;;;;;;;5.87;5.43;;;12.10;99.90;;;;;;5052887;28;20185;-75
2021/04/30 00:51:12;;;;;;;6.00;5.50;;;12.00;99.90;;;;;;5052393;28;20731;-75
2021/04/30 00:53:37;;;;;;;8.17;6.17;;;12.00;99.90;;;;;;5052524;28;20165;-74
2021/04/30 00:56:05;;;;;;;5.27;4.73;;;12.00;99.90;;;;;;5052402;28;20188;-75
2021/04/30 00:58:31;;;;;;;5.13;4.67;;;11.90;99.90;;;;;;5052454;28;20208;-75
2021/04/30 01:00:57;;;;;;;9.30;5.40;;;11.80;99.90;;;;;;5052387;28;20229;-75
2021/04/30 01:03:23;;;;;;;6.10;4.50;;;11.80;99.90;;;;;;5052320;28;20177;-74
2021/04/30 01:05:49;;;;;;;4.73;4.03;;;11.80;99.90;;;;;;5052313;28;20280;-75
2021/04/30 01:08:15;;;;;;;6.70;5.60;;;11.80;99.90;;;;;;5052318;28;20249;-75
2021/04/30 01:10:40;;;;;;;6.47;5.87;;;11.80;99.90;;;;;;5052284;28;20595;-75
2021/04/30 01:13:07;;;;;;;6.53;5.83;;;11.70;99.90;;;;;;5051991;28;20184;-75
2021/04/30 01:15:32;;;;;;;8.33;6.07;;;11.70;99.90;;;;;;5031153;28;20669;-75
2021/04/30 01:18:00;;;;;;;6.23;5.70;;;11.70;99.90;;;;;;5052469;28;20268;-75
2021/04/30 01:20:26;;;;;;;6.50;5.90;;;11.70;99.90;;;;;;5051099;28;20197;-75
2021/04/30 01:22:53;;;;;;;6.70;6.00;;;11.70;99.90;;;;;;5052395;28;20177;-75
2021/04/30 01:25:24;;;;;;;6.87;6.13;;;11.70;99.90;;;;;;5052174;28;20571;-75
2021/04/30 01:27:50;;;;;;;6.33;5.73;;;11.70;99.90;;;;;;5043430;28;20230;-74
2021/04/30 01:30:25;;;;;;;6.03;5.50;;;11.60;99.90;;;;;;5050653;28;20220;-75
2021/04/30 01:32:51;;;;;;;7.17;6.47;;;11.60;99.90;;;;;;5052435;28;20170;-75
2021/04/30 01:35:23;;;;;;;6.60;5.50;;;11.60;99.90;;;;;;5052057;28;20185;-75
2021/04/30 01:37:51;;;;;;;7.60;6.03;;;11.60;99.90;;;;;;5052275;28;20185;-75
2021/04/30 01:40:22;;;;;;;6.57;5.97;;;11.50;99.90;;;;;;5052027;28;20205;-74
2021/04/30 01:43:08;;;;;;;6.40;5.80;;;11.50;99.90;;;;;;5038023;28;20169;-75
2021/04/30 01:45:39;;;;;;;6.70;6.10;;;11.60;99.90;;;;;;5052051;28;20217;-75
2021/04/30 01:48:12;;;;;;;6.53;5.90;;;11.60;99.90;;;;;;5029307;28;20656;-75
2021/04/30 01:50:38;;;;;;;6.90;6.20;;;11.60;99.90;;;;;;5044850;28;20250;-75
2021/04/30 01:53:07;;;;;;;7.13;6.40;;;11.60;99.90;;;;;;5050823;28;20594;-74
2021/04/30 01:55:33;;;;;;;6.43;5.93;;;11.70;99.90;;;;;;5050454;28;20190;-75
2021/04/30 01:57:59;;;;;;;7.53;6.13;;;11.70;99.90;;;;;;5051568;28;20193;-75
2021/04/30 02:00:27;;;;;;;6.43;5.83;;;11.60;99.90;;;;;;5051673;28;20205;-75
2021/04/30 02:02:54;;;;;;;6.93;5.83;;;11.60;99.90;;;;;;5052081;28;20646;-75
2021/04/30 02:05:21;;;;;;;6.77;6.17;;;11.60;99.90;;;;;;5050497;28;20241;-75
2021/04/30 02:07:47;;;;;;;6.47;5.53;;;11.60;99.90;;;;;;5051826;28;20660;-75
2021/04/30 02:10:22;;;;;;;8.03;6.00;;;11.60;99.90;;;;;;5050401;28;20304;-74
2021/04/30 02:12:49;;;;;;;10.60;6.67;;;11.50;99.90;;;;;;5051770;28;20192;-75
2021/04/30 02:15:17;;;;;;;6.80;6.10;;;11.60;99.90;;;;;;5033858;28;20586;-75
2021/04/30 02:17:44;;;;;;;5.80;5.30;;;11.50;99.90;;;;;;5055370;28;20247;-75
2021/04/30 02:20:11;;;;;;;7.10;6.40;;;11.40;99.90;;;;;;5048030;28;20288;-75
2021/04/30 02:22:37;;;;;;;7.00;6.30;;;11.40;99.90;;;;;;5032962;28;20190;-75
2021/04/30 02:25:04;;;;;;;6.87;6.27;;;11.40;99.90;;;;;;5022098;28;20191;-75
2021/04/30 02:27:30;;;;;;;6.73;5.77;;;11.50;99.90;;;;;;5017222;28;20727;-74
2021/04/30 02:29:56;;;;;;;6.73;6.03;;;11.50;99.90;;;;;;5017095;28;20214;-75
2021/04/30 02:32:22;;;;;;;6.70;6.13;;;11.50;99.90;;;;;;5019071;28;20807;-75
2021/04/30 02:34:49;;;;;;;8.17;6.70;;;11.50;99.90;;;;;;5017705;28;20653;-75
2021/04/30 02:37:15;;;;;;;7.80;6.90;;;11.50;99.90;;;;;;5016066;28;20175;-75
2021/04/30 02:39:41;;;;;;;8.53;6.73;;;11.50;99.90;;;;;;5024744;28;20236;-74
2021/04/30 02:42:07;;;;;;;7.33;6.57;;;11.50;99.90;;;;;;5030334;28;20183;-75
2021/04/30 02:44:32;;;;;;;7.40;6.70;;;11.50;99.90;;;;;;5019352;28;20182;-75
2021/04/30 02:46:58;;;;;;;10.57;7.43;;;11.40;99.90;;;;;;5034155;28;20198;-75
2021/04/30 02:49:37;;;;;;;8.30;7.40;;;11.40;99.90;;;;;;5050616;28;20177;-75
2021/04/30 02:52:03;;;;;;;9.27;7.50;;;11.40;99.90;;;;;;5054345;28;20217;-74
2021/04/30 02:54:29;;;;;;;9.23;7.57;;;11.30;99.90;;;;;;5054607;28;20240;-74
2021/04/30 02:56:55;;;;;;;8.50;6.90;;;11.20;99.90;;;;;;5053048;28;20279;-75
2021/04/30 02:59:21;;;;;;;9.43;6.80;;;11.20;99.90;;;;;;5053381;28;20177;-75
2021/04/30 03:01:46;;;;;;;9.63;7.27;;;11.20;99.90;;;;;;5054359;28;20200;-75
2021/04/30 03:04:12;;;;;;;7.57;6.63;;;11.20;99.90;;;;;;5053436;28;20192;-75
2021/04/30 03:06:38;;;;;;;8.83;7.93;;;11.30;99.90;;;;;;5054236;28;20202;-75
2021/04/30 03:09:04;;;;;;;8.50;7.70;;;11.30;99.90;;;;;;5040162;28;20179;-75
2021/04/30 03:11:29;;;;;;;8.10;7.40;;;11.20;99.90;;;;;;5050791;28;20204;-75
2021/04/30 03:13:56;;;;;;;8.10;7.40;;;11.30;99.90;;;;;;5054038;28;20177;-75
2021/04/30 03:16:22;;;;;;;10.93;7.53;;;11.30;99.90;;;;;;5054321;28;20223;-75
2021/04/30 03:18:47;;;;;;;8.00;7.20;;;11.20;99.90;;;;;;5054381;28;20178;-75
2021/04/30 03:21:13;;;;;;;9.30;7.83;;;11.20;99.90;;;;;;5053806;28;20209;-75
2021/04/30 03:23:39;;;;;;;8.90;8.03;;;11.20;99.90;;;;;;5052909;28;20260;-75
2021/04/30 03:26:04;;;;;;;9.00;8.03;;;11.20;99.90;;;;;;5046526;28;20995;-75
2021/04/30 03:28:30;;;;;;;7.83;7.07;;;11.10;99.90;;;;;;5050611;28;20178;-75
2021/04/30 03:30:56;;;;;;;8.87;7.37;;;11.20;99.90;;;;;;5053865;28;20316;-74
2021/04/30 03:33:21;;;;;;;8.83;8.00;;;11.10;99.90;;;;;;5052715;28;20182;-74
2021/04/30 03:35:47;;;;;;;8.63;7.80;;;11.10;99.90;;;;;;5052578;28;20236;-74
2021/04/30 03:38:13;;;;;;;8.30;7.50;;;11.10;99.90;;;;;;5052455;28;20655;-75
2021/04/30 03:40:38;;;;;;;9.57;8.57;;;11.10;99.90;;;;;;5053567;28;20212;-75
2021/04/30 03:43:04;;;;;;;8.27;7.57;;;11.10;99.90;;;;;;5038309;28;20271;-75
2021/04/30 03:45:30;;;;;;;8.53;7.73;;;11.10;99.90;;;;;;5051997;28;20849;-74
2021/04/30 03:47:56;;;;;;;9.73;8.67;;;11.10;99.90;;;;;;5053581;28;20174;-75
2021/04/30 03:50:21;;;;;;;10.73;8.10;;;11.10;99.90;;;;;;5052274;28;20706;-75
2021/04/30 03:52:47;;;;;;;11.27;8.63;;;11.10;99.90;;;;;;5053047;28;20256;-75
2021/04/30 03:55:13;;;;;;;8.57;7.67;;;10.80;99.90;;;;;;5052362;28;20669;-75
2021/04/30 03:57:39;;;;;;;10.10;8.37;;;10.90;99.90;;;;;;5053498;28;20184;-75
2021/04/30 04:00:05;;;;;;;9.10;8.07;;;10.90;99.90;;;;;;5053290;28;20682;-74
2021/04/30 04:02:31;;;;;;;8.70;7.90;;;11.00;99.90;;;;;;5015679;28;20187;-74
2021/04/30 04:04:57;;;;;;;11.67;10.03;;;11.00;99.90;;;;;;5041304;28;20181;-74
2021/04/30 04:07:23;;;;;;;9.47;8.43;;;11.00;99.90;;;;;;5034407;28;20217;-75
2021/04/30 04:09:48;;;;;;;10.67;7.93;;;11.00;99.90;;;;;;5048335;28;20493;-74
2021/04/30 04:12:14;;;;;;;11.17;8.50;;;11.10;99.90;;;;;;5032160;28;20701;-75
2021/04/30 04:14:40;;;;;;;11.60;8.40;;;11.00;99.90;;;;;;5035190;28;20209;-74
2021/04/30 04:17:07;;;;;;;9.60;8.70;;;11.00;99.90;;;;;;5051203;28;20228;-74
2021/04/30 04:19:33;;;;;;;11.33;8.83;;;11.00;99.90;;;;;;5053177;28;20197;-75
2021/04/30 04:21:59;;;;;;;12.20;8.23;;;10.90;99.90;;;;;;5033533;28;20244;-74
2021/04/30 04:24:25;;;;;;;9.43;8.27;;;11.00;99.90;;;;;;5033835;28;20179;-74
2021/04/30 04:26:50;;;;;;;9.63;8.37;;;10.80;99.90;;;;;;5031911;28;20228;-74
2021/04/30 04:29:16;;;;;;;8.97;8.07;;;10.60;99.90;;;;;;5041928;28;20264;-74
2021/04/30 04:31:42;;;;;;;9.20;8.33;;;10.40;99.90;;;;;;5060493;23;20264;-79
2021/04/30 04:34:07;;;;;;;8.70;7.90;;;10.50;99.90;;;;;;5053958;28;20177;-78
2021/04/30 04:36:33;;;;;;;9.50;8.60;;;10.50;99.90;;;;;;5060699;28;20177;-79
2021/04/30 04:38:59;;;;;;;12.00;8.13;;;10.40;99.90;;;;;;5062412;28;20265;-78
2021/04/30 04:41:25;;;;;;;10.00;9.03;;;10.40;99.90;;;;;;5057639;28;20178;-79
2021/04/30 04:43:51;;;;;;;8.87;8.17;;;10.50;99.90;;;;;;5046955;28;20188;-78
2021/04/30 04:46:17;;;;;;;9.87;8.67;;;10.40;99.90;;;;;;5060076;28;20240;-78
2021/04/30 04:48:43;;;;;;;9.87;8.17;;;10.40;99.90;;;;;;5062497;28;20264;-79
2021/04/30 04:51:09;;;;;;;9.40;7.90;;;10.50;99.90;;;;;;5052853;28;20188;-76
2021/04/30 04:53:34;;;;;;;8.87;7.70;;;10.50;99.90;;;;;;5053766;28;20202;-76
2021/04/30 04:56:00;;;;;;;9.80;8.80;;;10.50;99.90;;;;;;5052758;28;20191;-76
2021/04/30 04:58:26;;;;;;;9.60;8.27;;;10.60;99.90;;;;;;5053015;28;20197;-76
2021/04/30 05:00:51;;;;;;;9.73;8.40;;;10.50;99.90;;;;;;5053707;28;20174;-77
2021/04/30 05:03:17;;;;;;;8.87;8.00;;;10.50;99.90;;;;;;5055296;28;20210;-78
2021/04/30 05:05:43;;;;;;;9.10;8.20;;;10.50;99.90;;;;;;5052535;28;20229;-78
2021/04/30 05:08:09;;;;;;;11.60;9.33;;;10.60;99.90;;;;;;5053917;28;20269;-79
2021/04/30 05:10:35;;;;;;;9.07;8.17;;;10.60;99.90;;;;;;5055649;28;20214;-78
2021/04/30 05:13:00;;;;;;;9.07;8.07;;;10.60;99.90;;;;;;5057672;28;20202;-78
2021/04/30 05:15:27;;;;;;;10.33;8.53;;;10.60;99.90;;;;;;5056566;28;20174;-78
2021/04/30 05:17:52;;;;;;;9.40;8.53;;;10.60;99.90;;;;;;5054114;28;20291;-77
2021/04/30 05:20:18;;;;;;;10.10;9.10;;;10.50;99.90;;;;;;5054375;28;20298;-77
2021/04/30 05:22:45;;;;;;;11.50;8.73;;;10.40;99.90;;;;;;5054795;28;20580;-77
2021/04/30 05:25:12;;;;;;;11.47;9.50;;;10.40;99.90;;;;;;5056955;28;20180;-78
2021/04/30 05:27:42;;;;;;;10.83;9.20;;;10.50;99.90;;;;;;5058187;28;20189;-78
2021/04/30 05:30:09;;;;;;;10.70;8.93;;;10.40;99.90;;;;;;5054695;28;20205;-78
2021/04/30 05:32:35;;;;;;;10.40;9.33;;;10.40;99.90;;;;;;5052492;28;20205;-76
2021/04/30 05:35:03;;;;;;;10.70;9.30;;;10.40;99.90;;;;;;5049756;28;20998;-77
2021/04/30 05:37:31;;;;;;;10.20;9.20;;;10.50;99.90;;;;;;5048030;28;20177;-76
2021/04/30 05:39:57;;;;;;;10.90;9.67;;;10.50;99.90;;;;;;5046870;28;20200;-77
2021/04/30 05:42:24;;;;;;;10.87;9.63;;;10.30;99.90;;;;;;5052383;28;20205;-76
2021/04/30 05:44:50;;;;;;;11.20;10.13;;;10.40;99.90;;;;;;5053112;28;20234;-77
2021/04/30 05:47:16;;;;;;;10.10;9.20;;;10.50;99.90;;;;;;5052323;28;20205;-78
2021/04/30 05:49:42;;;;;;;12.43;10.40;;;10.50;99.90;;;;;;5054502;28;20256;-77
2021/04/30 05:52:08;;;;;;;10.97;9.37;;;10.50;99.90;;;;;;5055233;28;20203;-77
2021/04/30 05:54:34;;;;;;;11.47;10.37;;;10.50;99.90;;;;;;5052009;28;20202;-77
2021/04/30 05:57:00;;;;;;;11.03;9.40;;;10.50;99.90;;;;;;5055311;28;20202;-77
2021/04/30 05:59:25;;;;;;;11.37;9.77;;;10.50;99.90;;;;;;5056181;28;20182;-77
2021/04/30 06:01:51;;;;;;;11.33;10.23;;;10.50;99.90;;;;;;5057648;28;20197;-78
2021/04/30 06:04:17;;;;;;;11.37;10.33;;;10.50;99.90;;;;;;5057369;28;20235;-77
2021/04/30 06:06:49;;;;;;;11.30;10.10;;;10.40;99.90;;;;;;5056700;28;20194;-78
2021/04/30 06:09:15;;;;;;;10.93;9.97;;;10.40;99.90;;;;;;5056020;28;20260;-76
2021/04/30 06:11:40;;;;;;;12.17;11.07;;;10.40;99.90;;;;;;5056429;28;20201;-78
2021/04/30 06:14:06;;;;;;;16.30;11.00;;;10.50;99.90;;;;;;5058590;28;20178;-77
2021/04/30 06:16:32;;;;;;;12.53;11.20;;;10.50;99.90;;;;;;5056029;28;20615;-77
2021/04/30 06:18:57;;;;;;;11.70;10.53;;;10.50;99.90;;;;;;5057039;28;20213;-77
2021/04/30 06:21:23;;;;;;;12.67;10.83;;;10.50;99.90;;;;;;5054236;28;20776;-77
2021/04/30 06:23:49;;;;;;;12.10;10.90;;;10.50;99.90;;;;;;5055405;28;20601;-77
2021/04/30 06:26:14;;;;;;;13.57;11.20;;;10.50;99.90;;;;;;5054158;28;20189;-77
2021/04/30 06:28:40;;;;;;;13.30;10.97;;;10.60;99.90;;;;;;5054280;28;20643;-77
2021/04/30 06:31:09;;;;;;;12.77;11.47;;;10.60;99.90;;;;;;5055357;28;20176;-77
2021/04/30 06:33:34;;;;;;;12.30;10.37;;;10.60;99.90;;;;;;5056468;28;20295;-77
2021/04/30 06:36:00;;;;;;;12.23;11.03;;;10.50;99.90;;;;;;5051827;28;20694;-77
2021/04/30 06:38:26;;;;;;;11.80;10.70;;;10.50;99.90;;;;;;5054835;28;20181;-77
2021/04/30 06:40:52;;;;;;;11.90;10.80;;;10.60;99.90;;;;;;5056251;28;20243;-77
2021/04/30 06:43:18;;;;;;;11.87;10.77;;;10.70;99.90;;;;;;5051158;28;20683;-76
2021/04/30 06:45:43;;;;;;;13.03;11.47;;;10.80;99.90;;;;;;5053220;28;20230;-77
2021/04/30 06:48:09;;;;;;;12.50;11.23;;;10.90;99.90;;;;;;5058238;28;20315;-78
2021/04/30 06:50:35;;;;;;;13.47;11.63;;;10.90;99.90;;;;;;5061461;28;20177;-77
2021/04/30 06:53:01;;;;;;;12.37;11.17;;;11.00;99.90;;;;;;5059956;28;20623;-78
2021/04/30 06:55:27;;;;;;;14.73;10.80;;;11.00;99.90;;;;;;5058825;28;20189;-78
2021/04/30 06:57:52;;;;;;;12.13;10.93;;;10.90;99.90;;;;;;5060339;28;20188;-78
2021/04/30 07:00:18;;;;;;;12.50;11.43;;;10.90;99.90;;;;;;5057652;28;20265;-78
2021/04/30 07:02:45;;;;;;;13.93;11.60;;;11.00;99.90;;;;;;5059352;28;20198;-78
2021/04/30 07:05:12;;;;;;;12.03;10.83;;;11.00;99.90;;;;;;5051143;28;20185;-78
2021/04/30 07:07:39;;;;;;;12.50;11.23;;;11.00;99.90;;;;;;5054905;28;20701;-77
2021/04/30 07:10:05;;;;;;;12.63;11.17;;;11.00;99.90;;;;;;5055636;28;20181;-77
2021/04/30 07:12:31;;;;;;;11.87;10.80;;;11.00;99.90;;;;;;5057183;28;20206;-78
2021/04/30 07:14:57;;;;;;;16.00;11.03;;;11.10;99.90;;;;;;5056084;28;20204;-78
2021/04/30 07:17:23;;;;;;;12.27;11.03;;;11.10;99.90;;;;;;5055799;28;20661;-77
2021/04/30 07:19:48;;;;;;;12.50;11.20;;;11.10;99.90;;;;;;5051864;28;20186;-77
2021/04/30 07:22:14;;;;;;;13.20;11.83;;;11.00;99.90;;;;;;5055783;28;20233;-78
2021/04/30 07:24:43;;;;;;;12.63;11.33;;;11.10;99.90;;;;;;5058406;28;20194;-79
2021/04/30 07:27:09;;;;;;;15.20;12.57;;;11.20;99.90;;;;;;5060980;28;20279;-79
2021/04/30 07:29:35;;;;;;;13.57;12.17;;;11.20;99.90;;;;;;5060271;28;20170;-78
2021/04/30 07:32:02;;;;;;;27.83;15.90;;;11.30;99.90;;;;;;5055862;28;20224;-78
2021/04/30 07:34:28;;;;;;;17.13;14.17;;;11.40;99.90;;;;;;5058157;28;20190;-77
2021/04/30 07:36:54;;;;;;;15.17;11.90;;;11.50;99.90;;;;;;5057743;28;20193;-78
2021/04/30 07:39:20;;;;;;;12.73;11.40;;;11.60;99.90;;;;;;5053281;28;20641;-77
2021/04/30 07:41:46;;;;;;;12.93;11.73;;;11.60;99.90;;;;;;5058896;28;20205;-77
2021/04/30 07:44:15;;;;;;;16.73;13.33;;;11.60;99.90;;;;;;5055627;28;20187;-76
2021/04/30 07:46:41;;;;;;;13.30;12.00;;;11.40;99.90;;;;;;5046636;28;20323;-76
2021/04/30 07:49:07;;;;;;;13.03;11.70;;;11.50;99.90;;;;;;5053233;28;20193;-77
2021/04/30 07:51:32;;;;;;;14.23;12.73;;;11.50;99.90;;;;;;5055284;28;20247;-77
2021/04/30 07:53:58;;;;;;;13.47;12.10;;;11.60;99.90;;;;;;5054207;28;20177;-76
2021/04/30 07:56:24;;;;;;;14.97;13.17;;;11.70;99.90;;;;;;5054776;28;20276;-76
2021/04/30 07:58:50;;;;;;;12.97;11.63;;;11.70;99.90;;;;;;5052154;28;20276;-77
2021/04/30 08:01:16;;;;;;;14.27;12.90;;;11.80;99.90;;;;;;5053654;28;20177;-77
2021/04/30 08:03:41;;;;;;;13.70;12.50;;;11.80;99.90;;;;;;5051263;28;20209;-77
2021/04/30 08:06:07;;;;;;;13.93;12.57;;;11.80;99.90;;;;;;5053249;28;20206;-77
2021/04/30 08:08:33;;;;;;;13.10;11.77;;;11.90;99.90;;;;;;5053614;28;20182;-79
2021/04/30 08:10:58;;;;;;;13.63;11.53;;;12.00;99.90;;;;;;5052459;28;20182;-78
2021/04/30 08:13:24;;;;;;;13.87;12.47;;;12.20;99.90;;;;;;5051699;28;20663;-77
2021/04/30 08:15:50;;;;;;;12.80;11.60;;;12.40;99.90;;;;;;5053800;28;20189;-77
2021/04/30 08:18:15;;;;;;;11.40;10.37;;;12.50;99.90;;;;;;5052884;28;20648;-77
2021/04/30 08:20:41;;;;;;;11.80;10.60;;;12.60;99.90;;;;;;5029232;28;20271;-77
2021/04/30 08:23:07;;;;;;;13.27;12.03;;;12.70;99.90;;;;;;5052718;28;20675;-76
2021/04/30 08:25:32;;;;;;;13.50;12.10;;;12.80;99.90;;;;;;5053256;28;20221;-77
2021/04/30 08:27:58;;;;;;;12.40;11.20;;;12.80;99.90;;;;;;5053313;28;20177;-77
2021/04/30 08:30:24;;;;;;;12.30;11.10;;;12.80;99.90;;;;;;5054511;28;20207;-77
2021/04/30 08:32:50;;;;;;;11.43;10.33;;;12.90;99.90;;;;;;5055247;28;20617;-78
2021/04/30 08:35:17;;;;;;;11.87;10.87;;;12.90;99.90;;;;;;5055999;28;20199;-78
2021/04/30 08:37:42;;;;;;;12.57;11.20;;;13.00;99.90;;;;;;5044739;28;20252;-78
2021/04/30 08:40:09;;;;;;;12.97;10.77;;;13.00;99.90;;;;;;5047687;28;20207;-77
2021/04/30 08:42:35;;;;;;;11.20;10.20;;;13.00;99.90;;;;;;5053211;28;20197;-76
2021/04/30 08:45:01;;;;;;;11.50;9.97;;;13.10;99.90;;;;;;5053690;28;20253;-77
2021/04/30 08:47:27;;;;;;;11.57;10.57;;;13.20;99.90;;;;;;5053507;28;20714;-77
2021/04/30 08:49:55;;;;;;;11.67;10.27;;;13.40;99.90;;;;;;5040433;28;20182;-77
2021/04/30 08:52:21;;;;;;;12.37;11.23;;;13.60;99.90;;;;;;5042022;28;20699;-77
2021/04/30 08:54:51;;;;;;;11.00;10.10;;;13.90;99.90;;;;;;5041734;28;20178;-77
2021/04/30 08:57:25;;;;;;;12.00;10.60;;;13.90;99.90;;;;;;5051874;28;20192;-77
2021/04/30 08:59:59;;;;;;;10.40;9.50;;;14.00;99.90;;;;;;5051803;28;20639;-76
2021/04/30 09:02:30;;;;;;;11.03;10.00;;;13.90;99.90;;;;;;5051453;28;20221;-78
2021/04/30 09:04:56;;;;;;;10.90;10.03;;;14.00;99.90;;;;;;5046767;28;20546;-78
2021/04/30 09:07:27;;;;;;;10.47;9.47;;;14.00;99.90;;;;;;5054693;28;20675;-76
2021/04/30 09:10:00;;;;;;;10.33;9.33;;;14.20;99.90;;;;;;5053485;28;20178;-77
2021/04/30 09:12:26;;;;;;;9.47;8.67;;;14.20;99.90;;;;;;5053731;28;20194;-77
2021/04/30 09:14:52;;;;;;;9.97;9.20;;;14.30;99.90;;;;;;5053621;28;20182;-77
2021/04/30 09:17:19;;;;;;;9.43;8.57;;;14.40;99.90;;;;;;5053856;28;20188;-77
2021/04/30 09:19:59;;;;;;;9.73;8.90;;;14.40;99.90;;;;;;5052424;28;20213;-77
2021/04/30 09:22:30;;;;;;;13.27;9.00;;;14.50;99.90;;;;;;5053238;28;20198;-77
2021/04/30 09:24:59;;;;;;;10.23;9.23;;;14.50;99.90;;;;;;5057064;28;20187;-78
2021/04/30 09:27:38;;;;;;;10.73;9.77;;;14.50;99.90;;;;;;5047176;28;20207;-77
2021/04/30 09:30:26;;;;;;;10.50;9.50;;;14.60;99.90;;;;;;5050736;28;20251;-78
2021/04/30 09:33:01;;;;;;;10.23;9.33;;;14.80;99.90;;;;;;5053142;28;20206;-78
2021/04/30 09:35:27;;;;;;;10.60;9.50;;;14.80;99.90;;;;;;5056717;28;20169;-77
2021/04/30 09:37:53;;;;;;;10.50;9.57;;;14.90;99.90;;;;;;5044163;28;20642;-79
2021/04/30 09:40:30;;;;;;;10.03;9.13;;;15.00;99.90;;;;;;5045239;28;20257;-78
2021/04/30 09:43:07;;;;;;;10.47;9.47;;;15.10;99.90;;;;;;5059342;28;20811;-78
2021/04/30 09:45:33;;;;;;;10.53;9.50;;;15.10;99.90;;;;;;5053349;28;20185;-77
2021/04/30 09:48:07;;;;;;;10.80;9.90;;;15.10;99.90;;;;;;5057188;28;20174;-77
2021/04/30 09:50:34;;;;;;;12.50;10.47;;;15.10;99.90;;;;;;5047791;28;20174;-78
2021/04/30 09:53:03;;;;;;;10.57;9.63;;;15.20;99.90;;;;;;5056299;28;20243;-78
2021/04/30 09:55:49;;;;;;;10.80;9.80;;;15.20;99.90;;;;;;5057979;28;20178;-78
2021/04/30 09:58:21;;;;;;;10.23;9.33;;;15.30;99.90;;;;;;5056894;28;20213;-79
2021/04/30 10:00:52;;;;;;;11.27;9.60;;;15.60;99.90;;;;;;5059630;28;20205;-79
2021/04/30 10:03:24;;;;;;;10.33;9.47;;;15.80;99.90;;;;;;5057909;28;20233;-77
2021/04/30 10:06:13;;;;;;;10.30;9.03;;;15.90;99.90;;;;;;5056949;28;20201;-76
2021/04/30 10:08:40;;;;;;;9.50;8.63;;;16.10;99.90;;;;;;5057029;28;20169;-80
2021/04/30 10:11:30;;;;;;;10.30;9.33;;;16.10;99.90;;;;;;5038935;28;20592;-76
2021/04/30 10:13:56;;;;;;;9.97;9.17;;;16.20;99.90;;;;;;5052686;28;20707;-78
2021/04/30 10:16:22;;;;;;;9.73;8.77;;;16.10;99.90;;;;;;5048090;28;20185;-81
2021/04/30 10:18:48;;;;;;;9.90;8.90;;;16.10;99.90;;;;;;5057126;28;20548;-77
2021/04/30 10:21:14;;;;;;;10.13;9.07;;;16.20;99.90;;;;;;5057720;28;20188;-77
2021/04/30 10:29:01;;;;;;;9.77;8.80;;;16.50;99.90;;;;;;5041854;28;20237;-76
2021/04/30 10:31:33;;;;;;;10.97;9.73;;;16.50;99.90;;;;;;5033306;28;20182;-75
2021/04/30 10:34:11;;;;;;;10.73;9.83;;;16.70;99.90;;;;;;5045441;28;20190;-76
2021/04/30 10:36:45;;;;;;;10.23;9.37;;;16.80;99.90;;;;;;5034279;28;20266;-76
2021/04/30 10:39:25;;;;;;;10.47;9.43;;;16.90;99.90;;;;;;5025841;28;20212;-75
2021/04/30 10:41:52;;;;;;;10.37;9.47;;;17.10;99.90;;;;;;5059085;22;20624;-79
2021/04/30 10:44:23;;;;;;;12.03;9.47;;;17.30;99.90;;;;;;5077341;28;20195;-78
2021/04/30 10:47:07;;;;;;;9.00;8.30;;;17.40;99.90;;;;;;5078202;28;20181;-76
2021/04/30 10:49:33;;;;;;;10.70;9.80;;;17.40;99.90;;;;;;5072890;28;20263;-78
2021/04/30 10:52:06;;;;;;;11.53;9.07;;;17.20;99.90;;;;;;5076267;28;20185;-79
2021/04/30 10:54:36;;;;;;;9.60;8.87;;;17.40;99.90;;;;;;5077259;28;20161;-79
2021/04/30 10:57:03;;;;;;;9.60;8.70;;;17.60;99.90;;;;;;5075654;28;20169;-79
2021/04/30 10:59:42;;;;;;;9.90;9.00;;;17.90;99.90;;;;;;5075970;28;20203;-79
2021/04/30 11:02:29;;;;;;;9.63;8.93;;;18.00;99.90;;;;;;5076946;28;20625;-80
2021/04/30 11:05:07;;;;;;;9.60;8.83;;;18.20;99.90;;;;;;5077473;28;20169;-79
2021/04/30 11:07:33;;;;;;;11.07;9.13;;;18.40;99.90;;;;;;5078444;28;20218;-79
2021/04/30 11:09:59;;;;;;;11.10;8.70;;;18.40;99.90;;;;;;5078792;28;20234;-79
2021/04/30 11:12:26;;;;;;;9.47;8.57;;;18.40;99.90;;;;;;5078575;28;20185;-78
2021/04/30 11:15:10;;;;;;;10.37;9.23;;;18.50;99.90;;;;;;5077299;28;20169;-79
2021/04/30 11:17:59;;;;;;;10.30;9.33;;;18.70;99.90;;;;;;5064054;28;20268;-80
2021/04/30 11:20:28;;;;;;;9.53;8.73;;;18.70;99.90;;;;;;5072948;28;20181;-78
2021/04/30 11:23:19;;;;;;;10.23;9.37;;;18.90;99.90;;;;;;5076857;28;20193;-78
2021/04/30 11:25:57;;;;;;;9.50;8.70;;;18.80;99.90;;;;;;5076141;28;20193;-79
2021/04/30 11:28:29;;;;;;;9.17;8.37;;;18.80;99.90;;;;;;5073137;28;20211;-80
2021/04/30 11:31:16;;;;;;;10.20;8.87;;;18.70;99.90;;;;;;5071395;28;20934;-79
2021/04/30 11:34:18;;;;;;;9.23;8.43;;;18.70;99.90;;;;;;5061862;28;20207;-79
2021/04/30 11:36:46;;;;;;;9.80;8.97;;;18.80;99.90;;;;;;5072017;28;20176;-79
2021/04/30 11:39:17;;;;;;;10.50;9.40;;;18.70;99.90;;;;;;5063501;28;20165;-79
2021/04/30 11:41:44;;;;;;;10.80;9.90;;;18.40;99.90;;;;;;5076589;28;20638;-79
2021/04/30 11:44:11;;;;;;;10.53;9.53;;;18.10;99.90;;;;;;5077913;28;20219;-79
2021/04/30 11:46:39;;;;;;;10.63;9.77;;;17.90;99.90;;;;;;5076685;28;20196;-77
2021/04/30 11:49:06;;;;;;;11.83;10.77;;;17.70;99.90;;;;;;5077978;28;20560;-79
2021/04/30 11:51:45;;;;;;;11.40;10.30;;;17.50;99.90;;;;;;5077324;28;20173;-78
2021/04/30 11:54:11;;;;;;;11.60;10.47;;;17.40;99.90;;;;;;5077688;28;20172;-78
2021/04/30 11:56:37;;;;;;;11.77;10.23;;;17.30;99.90;;;;;;5077359;28;20173;-78
2021/04/30 11:59:03;;;;;;;11.00;10.10;;;17.00;99.90;;;;;;5077109;28;20639;-78
2021/04/30 12:01:29;;;;;;;12.20;11.20;;;16.90;99.90;;;;;;5077240;28;20226;-78
2021/04/30 12:03:56;;;;;;;11.63;10.53;;;16.80;99.90;;;;;;5076159;28;20256;-79
2021/04/30 12:06:24;;;;;;;11.33;10.43;;;16.60;99.90;;;;;;5077397;28;20193;-78
2021/04/30 12:08:53;;;;;;;11.43;10.53;;;16.50;99.90;;;;;;5076740;28;20256;-78
2021/04/30 12:11:30;;;;;;;11.47;10.47;;;16.60;99.90;;;;;;5076865;28;20284;-79
2021/04/30 12:14:02;;;;;;;12.17;11.13;;;16.60;99.90;;;;;;5077064;28;20165;-78
2021/04/30 12:16:27;;;;;;;12.03;10.87;;;16.30;99.90;;;;;;5076846;28;20176;-78
2021/04/30 12:18:57;;;;;;;12.00;11.00;;;15.90;99.90;;;;;;5069259;28;20541;-79
2021/04/30 12:21:31;;;;;;;11.77;10.70;;;15.80;99.90;;;;;;5069817;28;20646;-79
2021/04/30 12:23:58;;;;;;;12.00;10.73;;;15.80;99.90;;;;;;5076048;28;20179;-78
2021/04/30 12:26:32;;;;;;;12.20;10.93;;;15.60;99.90;;;;;;5076874;28;20250;-78
2021/04/30 12:28:59;;;;;;;12.37;11.37;;;15.50;99.90;;;;;;5076774;28;20169;-77
2021/04/30 12:31:26;;;;;;;16.97;10.97;;;15.50;99.90;;;;;;5074705;28;20197;-78
2021/04/30 12:33:54;;;;;;;12.67;11.50;;;15.40;99.90;;;;;;5065445;28;20180;-78
2021/04/30 12:36:32;;;;;;;10.70;9.70;;;15.30;99.90;;;;;;5075676;28;20566;-78
2021/04/30 12:38:58;;;;;;;11.83;10.70;;;15.20;99.90;;;;;;5075721;28;20177;-78
2021/04/30 12:41:29;;;;;;;11.97;10.93;;;15.00;99.90;;;;;;5075717;28;20184;-79
2021/04/30 12:44:03;;;;;;;10.80;10.00;;;15.00;99.90;;;;;;5061988;28;20669;-79
2021/04/30 12:46:31;;;;;;;12.53;11.30;;;14.90;99.90;;;;;;5066638;28;20581;-78